createdAt,value
2023-05-11T00:06:55.192Z,10.55
2023-05-11T00:16:57.203Z,10.44
2023-05-11T00:26:59.309Z,10.67
2023-05-11T00:37:01.323Z,10.63
2023-05-11T00:47:03.873Z,10.99
2023-05-11T00:57:06.150Z,10.74
2023-05-11T01:07:19.656Z,10.34
2023-05-11T01:17:36.059Z,10.49
2023-05-11T01:28:10.527Z,10.51
2023-05-11T01:38:14.628Z,10.51
2023-05-11T01:48:19.211Z,10.50
2023-05-11T01:58:21.752Z,10.05
2023-05-11T02:08:25.646Z,10.48
2023-05-11T02:18:28.457Z,10.11
2023-05-11T02:28:34.800Z,10.36
2023-05-11T02:38:39.011Z,10.18
2023-05-11T02:48:47.351Z,9.60
2023-05-11T02:58:51.421Z,9.97
2023-05-11T03:08:57.835Z,10.30
2023-05-11T03:19:02.134Z,9.89
2023-05-11T03:29:07.419Z,10.01
2023-05-11T03:39:11.538Z,9.90
2023-05-11T03:49:15.611Z,10.02
2023-05-11T03:59:18.180Z,10.16
2023-05-11T04:09:20.293Z,10.37
2023-05-11T04:19:22.491Z,10.38
2023-05-11T04:29:25.077Z,10.62
2023-05-11T04:39:27.086Z,10.10
2023-05-11T04:49:29.304Z,10.15
2023-05-11T04:59:31.509Z,10.12
2023-05-11T05:09:33.668Z,10.43
2023-05-11T05:19:35.937Z,10.14
2023-05-11T05:29:38.254Z,10.57
2023-05-11T05:39:40.994Z,10.28
2023-05-11T05:49:43.172Z,10.66
2023-05-11T05:59:45.349Z,10.41
2023-05-11T06:09:48.275Z,10.69
2023-05-11T06:19:50.445Z,10.33
2023-05-11T06:29:57.642Z,10.95
2023-05-11T06:40:03.184Z,11.09
2023-05-11T06:50:05.922Z,10.88
2023-05-11T07:00:08.867Z,10.71
2023-05-11T07:10:10.960Z,10.82
2023-05-11T07:20:13.354Z,10.50
2023-05-11T07:30:17.345Z,11.38
2023-05-11T07:40:20.965Z,11.24
2023-05-11T07:50:24.683Z,11.30
2023-05-11T08:00:27.565Z,12.10
2023-05-11T08:10:29.629Z,11.68
2023-05-11T08:20:31.648Z,12.12
2023-05-11T08:30:33.825Z,12.47
2023-05-11T08:40:36.265Z,12.85
2023-05-11T08:50:38.399Z,12.98
2023-05-11T09:00:45.321Z,13.12
2023-05-11T09:11:06.517Z,12.99
2023-05-11T09:21:08.748Z,13.20
2023-05-11T09:31:10.782Z,13.30
2023-05-11T09:41:19.954Z,13.32
2023-05-11T09:51:32.358Z,13.40
2023-05-11T10:01:34.923Z,13.15
2023-05-11T10:11:38.743Z,13.25
2023-05-11T10:21:41.120Z,13.14
2023-05-11T10:31:44.439Z,13.14
2023-05-11T10:41:55.705Z,13.65
2023-05-11T10:52:09.479Z,13.57
2023-05-11T11:02:11.814Z,14.29
2023-05-11T11:12:14.326Z,13.78
2023-05-11T11:22:34.987Z,13.85
2023-05-11T11:32:37.385Z,14.50
2023-05-11T11:42:41.961Z,13.63
2023-05-11T11:52:44.072Z,15.06
2023-05-11T12:02:46.320Z,13.86
2023-05-11T12:12:50.558Z,13.70
2023-05-11T12:22:53.560Z,13.04
2023-05-11T12:32:57.491Z,14.00
2023-05-11T12:43:00.587Z,13.43
2023-05-11T12:53:19.062Z,13.31
2023-05-11T13:03:25.899Z,12.53
2023-05-11T13:13:28.756Z,12.15
2023-05-11T13:23:31.847Z,11.79
2023-05-11T13:43:36.622Z,12.17
2023-05-11T13:53:38.675Z,12.42
2023-05-11T14:03:40.817Z,12.32
2023-05-11T14:13:42.936Z,12.34
2023-05-11T14:23:56.834Z,12.48
2023-05-11T14:34:06.558Z,12.37
2023-05-11T14:44:09.923Z,12.14
2023-05-11T14:54:11.972Z,11.97
2023-05-11T15:04:15.584Z,11.79
2023-05-11T15:14:17.840Z,11.94
2023-05-11T15:24:19.996Z,12.09
2023-05-11T15:34:22.089Z,12.50
2023-05-11T15:44:24.349Z,12.09
2023-05-11T15:54:26.909Z,12.33
2023-05-11T16:04:28.950Z,11.57
2023-05-11T16:14:31.308Z,11.75
2023-05-11T16:24:34.609Z,11.92
2023-05-11T16:34:36.988Z,12.15
2023-05-11T16:44:39.167Z,11.64
2023-05-11T16:54:41.374Z,12.01
2023-05-11T17:04:43.498Z,12.13
2023-05-11T17:14:45.533Z,11.11
2023-05-11T17:24:47.623Z,11.20
2023-05-11T17:34:49.708Z,11.29
2023-05-11T17:44:51.898Z,11.36
2023-05-11T17:54:54.101Z,11.38
2023-05-11T18:04:56.314Z,11.10
2023-05-11T18:14:59.737Z,11.05
2023-05-11T18:25:02.366Z,11.36
2023-05-11T18:35:04.734Z,11.43
2023-05-11T18:45:07.723Z,11.46
2023-05-11T18:55:10.215Z,11.36
2023-05-11T19:05:12.770Z,11.75
2023-05-11T19:15:15.290Z,11.36
2023-05-11T19:25:17.610Z,11.52
2023-05-11T19:35:20.315Z,11.14
2023-05-11T19:45:22.341Z,11.39
2023-05-11T19:55:24.380Z,11.32
2023-05-11T20:05:26.809Z,11.59
2023-05-11T20:15:28.832Z,11.68
2023-05-11T20:25:30.907Z,11.79
2023-05-11T20:35:33.860Z,11.61
2023-05-11T20:45:36.166Z,11.48
2023-05-11T20:55:38.221Z,11.60
2023-05-11T21:05:40.586Z,11.67
2023-05-11T21:15:42.675Z,11.36
2023-05-11T21:25:44.774Z,11.04
2023-05-11T21:35:47.639Z,11.05
2023-05-11T21:45:50.302Z,11.02
2023-05-11T21:55:52.376Z,10.91
2023-05-11T22:05:54.405Z,10.76
2023-05-11T22:15:56.536Z,11.13
2023-05-11T22:25:58.687Z,10.71
2023-05-11T22:36:00.842Z,10.82
2023-05-11T22:46:04.038Z,10.69
2023-05-11T22:56:07.298Z,10.40
2023-05-11T23:06:09.496Z,10.91
2023-05-11T23:16:11.840Z,10.78
2023-05-11T23:26:13.913Z,11.08
2023-05-11T23:36:16.226Z,10.67
2023-05-11T23:46:18.298Z,10.83
2023-05-11T23:56:20.350Z,11.06
